Time;durP1;ratioP1;P1;durP2;ratioP2;P2;SDS_P1;SDS_P2;PMS_P1;PMS_P2;Temp;Humidity;BMP_temperature;BMP_pressure;BME280_temperature;BME280_humidity;BME280_pressure;Samples;Min_cycle;Max_cycle;Signal;HPM_P1;HPM_P2
2023/04/11 00:00:41;;;;;;;12.67;11.43;;;;;;;10.57;100.00;57786.59;5093834;28;20180;-63
2023/04/11 00:03:08;;;;;;;13.23;12.07;;;;;;;10.43;100.00;50953.88;5093766;28;20191;-61
2023/04/11 00:05:34;;;;;;;14.60;13.17;;;;;;;10.57;100.00;46426.66;5094159;28;20210;-63
2023/04/11 00:08:03;;;;;;;16.40;14.50;;;;;;;10.51;100.00;39949.16;5093708;28;20188;-63
2023/04/11 00:10:29;;;;;;;14.90;12.20;;;;;;;10.45;100.00;34775.31;5093957;28;20184;-62
2023/04/11 00:12:56;;;;;;;15.83;14.23;;;;;;;10.40;100.00;29933.97;5093471;28;20235;-63
2023/04/11 00:15:25;;;;;;;17.47;14.57;;;;;;;10.28;100.00;23809.84;5093555;28;20261;-62
2023/04/11 00:17:52;;;;;;;16.13;13.67;;;;;;;10.28;100.00;17061.22;5093607;28;20200;-62
2023/04/11 00:20:19;;;;;;;15.67;12.70;;;;;;;10.21;100.00;11927.03;5093804;28;20184;-62
2023/04/11 00:22:46;;;;;;;12.63;11.60;;;;;;;10.07;100.00;9361.31;5093713;28;20176;-63
2023/04/11 00:25:15;;;;;;;14.10;12.90;;;;;;;10.14;100.00;5842.31;5093390;28;20191;-62
2023/04/11 00:27:41;;;;;;;14.27;12.77;;;;;;;10.15;100.00;3284.47;5093621;28;20555;-62
2023/04/11 00:30:09;;;;;;;13.97;12.53;;;;;;;10.08;100.00;408.69;5093182;28;20188;-62
2023/04/11 00:32:36;;;;;;;13.30;12.10;;;;;;;10.03;100.00;-1506.72;5092215;28;20291;-62
2023/04/11 00:35:02;;;;;;;14.80;13.23;;;;;;;10.00;100.00;-4058.47;5093157;28;20180;-62
2023/04/11 00:37:30;;;;;;;14.57;13.20;;;;;;;9.98;100.00;-6289.41;5093132;28;20184;-62
2023/04/11 00:39:57;;;;;;;14.83;13.40;;;;;;;9.93;100.00;-7244.75;5093114;28;20188;-62
2023/04/11 00:42:25;;;;;;;13.67;12.57;;;;;;;9.85;100.00;-8517.78;5093419;28;20627;-62
2023/04/11 00:44:52;;;;;;;13.97;12.67;;;;;;;9.80;100.00;-9472.09;5093112;28;20172;-62
2023/04/11 00:47:19;;;;;;;13.37;12.10;;;;;;;9.79;100.00;-9790.19;5093318;28;20631;-62
2023/04/11 00:49:46;;;;;;;14.97;13.50;;;;;;;9.69;100.00;-10425.19;5093199;28;20630;-63
2023/04/11 00:52:13;;;;;;;14.43;12.93;;;;;;;9.88;100.00;-10745.63;5093122;28;20212;-62
2023/04/11 00:54:40;;;;;;;13.70;12.47;;;;;;;9.88;100.00;-10745.59;5092831;28;20184;-62
2023/04/11 00:57:08;;;;;;;14.30;12.90;;;;;;;9.82;100.00;-10426.75;5093076;28;20180;-64
2023/04/11 00:59:36;;;;;;;14.23;12.83;;;;;;;9.87;100.00;-10109.16;5093168;28;20183;-62
2023/04/11 01:02:03;;;;;;;18.03;13.20;;;;;;;9.52;100.00;-9469.28;5093055;28;20188;-62
2023/04/11 01:04:30;;;;;;;12.97;11.93;;;;;;;9.85;100.00;-9790.75;5092772;28;20188;-63
2023/04/11 01:07:02;;;;;;;14.07;12.60;;;;;;;9.88;100.00;-9472.88;5093187;28;20548;-62
2023/04/11 01:09:30;;;;;;;14.37;13.03;;;;;;;9.83;100.00;-9472.34;5092913;28;20238;-63
2023/04/11 01:11:58;;;;;;;13.63;12.30;;;;;;;9.83;100.00;-8517.56;5092577;28;20223;-62
2023/04/11 01:14:27;;;;;;;13.40;12.30;;;;;;;9.88;100.00;-7562.91;5093009;28;20195;-61
2023/04/11 01:16:56;;;;;;;13.60;12.50;;;;;;;9.90;100.00;-7881.47;5092728;28;20184;-63
2023/04/11 01:19:25;;;;;;;15.37;13.10;;;;;;;9.90;100.00;-8518.22;5092328;28;20192;-62
2023/04/11 01:21:53;;;;;;;14.17;12.90;;;;;;;9.83;100.00;-9790.59;5092362;28;20200;-62
2023/04/11 01:24:22;;;;;;;13.07;11.60;;;;;;;9.80;100.00;-10426.56;5092745;28;20635;-63
2023/04/11 01:26:49;;;;;;;13.33;12.27;;;;;;;9.86;100.00;-10109.06;5090982;28;20198;-63
2023/04/11 01:29:16;;;;;;;14.83;12.60;;;;;;;9.64;100.00;-10742.75;5092338;28;20188;-63
2023/04/11 01:31:43;;;;;;;13.20;12.10;;;;;;;9.87;100.00;-10427.31;5092312;28;20204;-63
2023/04/11 01:34:13;;;;;;;14.80;13.20;;;;;;;9.99;100.00;-8519.00;5092125;28;20184;-63
2023/04/11 01:36:40;;;;;;;14.80;13.40;;;;;;;10.09;100.00;-8519.81;5092196;28;20275;-62
2023/04/11 01:39:08;;;;;;;14.60;13.30;;;;;;;9.88;100.00;-7562.91;5092088;28;20253;-63
2023/04/11 01:41:36;;;;;;;14.27;13.00;;;;;;;10.00;100.00;-6926.69;5092393;28;20594;-63
2023/04/11 01:44:04;;;;;;;15.83;14.17;;;;;;;9.96;100.00;-5970.72;5091858;28;20190;-62
2023/04/11 01:46:31;;;;;;;16.00;13.93;;;;;;;10.23;100.00;-5015.47;5091998;28;20187;-63
2023/04/11 01:48:59;;;;;;;16.90;13.43;;;;;;;10.05;100.00;-4377.38;5092283;28;20196;-63
2023/04/11 01:51:27;;;;;;;14.87;13.43;;;;;;;10.22;100.00;-4058.75;5092207;28;20638;-63
2023/04/11 01:53:54;;;;;;;14.57;13.30;;;;;;;10.37;100.00;-4377.97;5092211;28;20184;-63
2023/04/11 01:56:21;;;;;;;15.30;13.97;;;;;;;10.26;100.00;-4377.75;5091728;28;20188;-63
2023/04/11 01:58:49;;;;;;;14.27;13.17;;;;;;;10.21;100.00;-5653.03;5092178;28;20647;-63
2023/04/11 02:01:17;;;;;;;16.13;14.43;;;;;;;10.21;100.00;-7565.22;5091782;28;20188;-63
2023/04/11 02:03:44;;;;;;;14.83;13.53;;;;;;;10.08;100.00;-8838.16;5092059;28;20613;-62
2023/04/11 02:06:11;;;;;;;15.53;14.13;;;;;;;10.13;100.00;-9475.44;5092066;28;20532;-63
2023/04/11 02:08:38;;;;;;;17.60;14.60;;;;;;;10.00;100.00;-9155.78;5091637;28;20180;-63
2023/04/11 02:11:06;;;;;;;15.23;13.73;;;;;;;10.21;100.00;-8839.34;5091481;28;20233;-62
2023/04/11 02:13:34;;;;;;;14.73;13.53;;;;;;;10.22;100.00;-8520.97;5091960;28;20287;-64
2023/04/11 02:16:07;;;;;;;15.70;14.23;;;;;;;10.21;100.00;-8202.34;5091469;28;20203;-63
2023/04/11 02:18:34;;;;;;;14.90;13.60;;;;;;;10.20;100.00;-8202.28;5091904;28;20199;-63
2023/04/11 02:21:01;;;;;;;14.57;13.47;;;;;;;10.24;100.00;-8521.13;5091949;28;20186;-63
2023/04/11 02:23:27;;;;;;;14.70;13.20;;;;;;;10.21;100.00;-8202.34;5091922;28;20627;-63
2023/04/11 02:25:54;;;;;;;15.10;13.77;;;;;;;10.13;100.00;-8520.19;5091500;28;20234;-62
2023/04/11 02:28:22;;;;;;;14.57;13.20;;;;;;;10.16;100.00;-8520.44;5091799;28;20196;-64
2023/04/11 02:30:49;;;;;;;15.13;13.73;;;;;;;10.16;100.00;-8520.44;5091423;28;20192;-64
2023/04/11 02:33:18;;;;;;;14.43;13.10;;;;;;;10.16;100.00;-8520.38;5091643;28;20686;-65
2023/04/11 02:35:46;;;;;;;13.70;12.50;;;;;;;10.15;100.00;-7883.28;5091642;28;20188;-64
2023/04/11 02:38:12;;;;;;;12.60;11.50;;;;;;;10.09;100.00;-7245.81;5091737;28;20184;-64
2023/04/11 02:40:39;;;;;;;12.23;11.23;;;;;;;9.85;100.00;-6288.75;5091713;28;20188;-64
2023/04/11 02:43:06;;;;;;;12.00;11.10;;;;;;;9.93;100.00;-6607.72;5091544;28;20180;-63
2023/04/11 02:45:33;;;;;;;10.87;10.00;;;;;;;9.94;100.00;-5970.59;5091573;28;20531;-64
2023/04/11 02:48:00;;;;;;;12.33;11.43;;;;;;;9.89;100.00;-6926.03;5091505;28;20188;-64
2023/04/11 02:50:28;;;;;;;13.03;12.07;;;;;;;9.88;100.00;-7562.84;5091272;28;20192;-64
2023/04/11 02:52:55;;;;;;;13.63;12.43;;;;;;;9.87;100.00;-8517.97;5091197;28;20582;-65
2023/04/11 02:55:23;;;;;;;14.97;13.67;;;;;;;10.00;100.00;-8519.09;5092019;28;20627;-64
2023/04/11 02:57:50;;;;;;;16.13;14.83;;;;;;;9.94;100.00;-7563.28;5094945;28;20206;-64
2023/04/11 03:00:18;;;;;;;23.73;15.00;;;;;;;10.01;100.00;-7245.28;5094921;28;20184;-64
2023/04/11 03:02:45;;;;;;;17.53;15.83;;;;;;;9.94;100.00;-6926.31;5095265;28;20524;-63
2023/04/11 03:05:13;;;;;;;20.63;18.17;;;;;;;9.82;100.00;-6925.56;5094961;28;20195;-64
2023/04/11 03:07:41;;;;;;;20.37;18.37;;;;;;;9.95;100.00;-7244.88;5094936;28;20281;-64
2023/04/11 03:10:08;;;;;;;20.17;18.13;;;;;;;9.94;100.00;-7244.84;5095067;28;20604;-63
2023/04/11 03:12:35;;;;;;;23.70;19.53;;;;;;;9.88;100.00;-6607.44;5094468;28;20231;-62
2023/04/11 03:15:02;;;;;;;22.03;19.60;;;;;;;9.68;100.00;-6924.72;5095018;28;20188;-64
2023/04/11 03:17:29;;;;;;;21.73;19.57;;;;;;;9.91;100.00;-6926.16;5094869;28;20218;-63
2023/04/11 03:19:56;;;;;;;23.57;19.13;;;;;;;10.00;100.00;-6926.72;5094845;28;20184;-64
2023/04/11 03:22:23;;;;;;;24.63;20.23;;;;;;;10.00;100.00;-6289.50;5094510;28;20181;-63
2023/04/11 03:24:52;;;;;;;22.77;20.37;;;;;;;9.93;100.00;-5970.56;5094791;28;20207;-64
2023/04/11 03:27:18;;;;;;;22.43;20.00;;;;;;;9.98;100.00;-5970.78;5094793;28;20237;-64
2023/04/11 03:29:45;;;;;;;23.67;21.17;;;;;;;9.93;100.00;-6289.19;5094236;28;20199;-64
2023/04/11 03:32:12;;;;;;;25.03;21.43;;;;;;;10.06;100.00;-5971.19;5094609;28;20594;-63
2023/04/11 03:34:39;;;;;;;23.10;20.53;;;;;;;10.15;100.00;-5971.56;5094285;28;20184;-64
2023/04/11 03:37:06;;;;;;;23.47;21.07;;;;;;;10.20;100.00;-5971.78;5094531;28;20202;-64
2023/04/11 03:39:32;;;;;;;23.60;21.17;;;;;;;10.15;100.00;-6608.94;5094111;28;20258;-62
2023/04/11 03:42:01;;;;;;;28.47;23.03;;;;;;;10.12;100.00;-7245.97;5094482;28;20181;-63
2023/04/11 03:44:28;;;;;;;28.87;23.43;;;;;;;10.21;100.00;-8202.34;5094239;28;20249;-64
2023/04/11 03:46:55;;;;;;;25.07;22.33;;;;;;;10.17;100.00;-8838.94;5094125;28;20200;-64
2023/04/11 03:49:21;;;;;;;30.27;21.97;;;;;;;9.92;100.00;-9155.03;5094240;28;20184;-64
2023/04/11 03:51:48;;;;;;;25.50;22.77;;;;;;;10.00;100.00;-9155.78;5093842;28;20184;-65
2023/04/11 03:54:15;;;;;;;29.67;23.17;;;;;;;10.07;100.00;-9156.50;5094170;28;20627;-64
2023/04/11 03:56:42;;;;;;;32.40;24.83;;;;;;;10.00;100.00;-9155.78;5093778;28;20188;-64
2023/04/11 03:59:10;;;;;;;31.17;24.90;;;;;;;10.02;100.00;-8519.22;5093985;28;20183;-65
2023/04/11 04:01:37;;;;;;;28.17;23.30;;;;;;;9.94;100.00;-8518.53;5093606;28;20183;-64
2023/04/11 04:04:06;;;;;;;29.27;23.33;;;;;;;9.92;100.00;-8518.34;5093594;28;20223;-64
2023/04/11 04:06:33;;;;;;;28.03;22.93;;;;;;;9.81;100.00;-8517.44;5093848;28;20188;-65
2023/04/11 04:08:59;;;;;;;26.93;22.67;;;;;;;9.91;100.00;-8836.66;5093991;28;20188;-66
2023/04/11 04:11:26;;;;;;;32.33;24.27;;;;;;;9.70;100.00;-8516.47;5093639;28;20602;-65
2023/04/11 04:13:54;;;;;;;24.90;21.00;;;;;;;9.80;100.00;-7880.66;5093389;28;20200;-65
2023/04/11 04:16:22;;;;;;;24.53;21.03;;;;;;;9.88;100.00;-7244.44;5093521;28;20262;-65
2023/04/11 04:18:49;;;;;;;18.13;16.30;;;;;;;9.73;100.00;-6606.59;5093303;28;20192;-64
2023/04/11 04:21:16;;;;;;;17.93;16.33;;;;;;;9.68;100.00;-5969.44;5093756;28;20184;-65
2023/04/11 04:23:46;;;;;;;20.77;15.97;;;;;;;9.66;100.00;-6924.59;5093271;28;20176;-64
2023/04/11 04:26:14;;;;;;;17.43;16.03;;;;;;;9.43;100.00;-6923.25;5093252;28;20194;-66
2023/04/11 04:28:45;;;;;;;17.60;16.00;;;;;;;9.40;100.00;-6923.06;5093171;28;20196;-65
2023/04/11 04:31:14;;;;;;;14.87;13.53;;;;;;;9.47;100.00;-5968.50;5093452;28;20188;-63
2023/04/11 04:33:43;;;;;;;16.97;15.27;;;;;;;9.47;100.00;-6605.19;5093401;28;20273;-65
2023/04/11 04:36:11;;;;;;;15.87;14.40;;;;;;;9.47;100.00;-6286.84;5093613;28;20196;-64
2023/04/11 04:38:40;;;;;;;17.20;15.47;;;;;;;9.32;100.00;-6604.38;5093186;28;20660;-65
2023/04/11 04:41:13;;;;;;;17.67;15.90;;;;;;;9.42;100.00;-6604.91;5093295;28;20188;-64
2023/04/11 04:43:41;;;;;;;19.53;14.50;;;;;;;9.35;100.00;-6604.53;5093236;28;20604;-66
2023/04/11 04:46:08;;;;;;;16.27;14.80;;;;;;;9.24;100.00;-6603.91;5092818;28;20180;-64
2023/04/11 04:48:35;;;;;;;18.43;15.97;;;;;;;9.27;100.00;-6604.09;5093144;28;20188;-63
2023/04/11 04:51:04;;;;;;;17.87;15.63;;;;;;;9.26;100.00;-6604.00;5093061;28;20539;-64
2023/04/11 04:53:33;;;;;;;18.63;16.80;;;;;;;8.87;100.00;-6601.84;5092937;28;20681;-64
2023/04/11 04:56:01;;;;;;;18.23;15.10;;;;;;;9.22;100.00;-6921.97;5091752;28;20184;-64
2023/04/11 04:58:28;;;;;;;17.13;15.40;;;;;;;9.28;100.00;-6922.34;5091413;28;20184;-64
2023/04/11 05:00:55;;;;;;;16.87;15.47;;;;;;;9.16;100.00;-6603.50;5092575;28;20200;-63
2023/04/11 05:03:22;;;;;;;23.23;14.37;;;;;;;9.18;100.00;-6285.41;5092551;28;20559;-63
2023/04/11 05:05:49;;;;;;;17.03;15.20;;;;;;;9.11;100.00;-6603.19;5092798;28;20184;-63
2023/04/11 05:08:20;;;;;;;15.23;13.63;;;;;;;9.21;100.00;-6603.72;5092818;28;20707;-64
2023/04/11 05:10:46;;;;;;;15.63;14.07;;;;;;;9.21;100.00;-6603.72;5092411;28;20188;-64
2023/04/11 05:13:13;;;;;;;14.67;13.63;;;;;;;9.19;100.00;-6285.44;5092073;28;20231;-64
2023/04/11 05:15:46;;;;;;;15.40;13.97;;;;;;;9.06;100.00;-6921.00;5092205;28;20639;-63
2023/04/11 05:18:13;;;;;;;16.00;14.60;;;;;;;9.16;100.00;-6921.63;5092080;28;20226;-64
2023/04/11 05:20:40;;;;;;;14.30;13.20;;;;;;;9.07;100.00;-6921.06;5091033;28;20192;-64
2023/04/11 05:23:07;;;;;;;13.37;12.40;;;;;;;9.17;100.00;-6921.66;5092172;28;20185;-63
2023/04/11 05:25:35;;;;;;;13.13;12.13;;;;;;;9.11;100.00;-7239.41;5092016;28;20195;-62
2023/04/11 05:28:02;;;;;;;12.80;11.90;;;;;;;9.17;100.00;-6603.53;5092398;28;20536;-60
2023/04/11 05:30:29;;;;;;;12.87;11.87;;;;;;;9.12;100.00;-6285.13;5091775;28;20196;-61
2023/04/11 05:32:56;;;;;;;11.30;10.57;;;;;;;9.18;100.00;-6285.44;5091938;28;20701;-63
2023/04/11 05:35:24;;;;;;;11.53;10.83;;;;;;;9.10;100.00;-5966.84;5091711;28;20203;-63
2023/04/11 05:37:51;;;;;;;11.80;10.77;;;;;;;9.12;100.00;-5648.72;5091647;28;20180;-66
2023/04/11 05:40:18;;;;;;;11.87;11.07;;;;;;;9.13;100.00;-5966.97;5091649;28;20187;-65
2023/04/11 05:42:46;;;;;;;10.97;10.20;;;;;;;8.99;100.00;-5648.19;5091517;28;20287;-65
2023/04/11 05:45:13;;;;;;;11.27;10.57;;;;;;;9.19;100.00;-6285.44;5091832;28;20223;-63
2023/04/11 05:47:40;;;;;;;12.37;11.40;;;;;;;9.05;100.00;-6602.84;5091637;28;20216;-65
2023/04/11 05:50:08;;;;;;;11.50;10.77;;;;;;;9.20;100.00;-7558.06;5092091;28;20184;-65
2023/04/11 05:52:34;;;;;;;11.23;10.57;;;;;;;9.28;100.00;-6922.34;5091452;28;20203;-65
2023/04/11 05:55:03;;;;;;;10.57;9.97;;;;;;;9.27;100.00;-7240.44;5091645;28;20540;-64
2023/04/11 05:57:30;;;;;;;11.10;10.30;;;;;;;9.24;100.00;-6603.88;5091761;28;20275;-66
2023/04/11 06:00:00;;;;;;;10.27;9.57;;;;;;;9.23;100.00;-6603.84;5091132;28;20187;-67
2023/04/11 06:02:27;;;;;;;11.63;10.87;;;;;;;9.23;100.00;-7558.25;5091497;28;20183;-65
2023/04/11 06:04:54;;;;;;;11.37;10.33;;;;;;;9.29;100.00;-6922.41;5091078;28;20272;-65
2023/04/11 06:07:21;;;;;;;10.70;9.90;;;;;;;9.29;100.00;-7240.56;5091242;28;20188;-66
2023/04/11 06:09:48;;;;;;;10.03;9.50;;;;;;;9.30;100.00;-6922.47;5091324;28;20183;-65
2023/04/11 06:12:15;;;;;;;9.43;8.83;;;;;;;9.35;100.00;-7240.97;5091183;28;20610;-64
2023/04/11 06:14:42;;;;;;;10.63;9.67;;;;;;;9.28;100.00;-7240.47;5091372;28;20180;-65
2023/04/11 06:17:10;;;;;;;9.80;9.30;;;;;;;9.32;100.00;-7240.75;5091243;28;20191;-62
2023/04/11 06:19:37;;;;;;;11.00;10.30;;;;;;;9.37;100.00;-7559.28;5091169;28;20180;-64
2023/04/11 06:22:04;;;;;;;10.10;9.50;;;;;;;9.29;100.00;-7558.72;5091249;28;20180;-65
2023/04/11 06:24:38;;;;;;;9.77;9.20;;;;;;;9.43;100.00;-7877.88;5091408;28;20612;-64
2023/04/11 06:27:08;;;;;;;10.33;9.73;;;;;;;9.36;100.00;-6922.81;5091456;28;20196;-64
2023/04/11 06:29:35;;;;;;;9.40;8.90;;;;;;;9.39;100.00;-7241.19;5090961;28;20562;-65
2023/04/11 06:32:02;;;;;;;9.83;9.13;;;;;;;9.36;100.00;-6922.78;5094274;28;20194;-64
2023/04/11 06:34:30;;;;;;;9.87;9.33;;;;;;;9.29;100.00;-7240.56;5095038;28;20200;-64
2023/04/11 06:36:57;;;;;;;9.43;8.93;;;;;;;9.24;100.00;-7240.25;5095077;28;20184;-65
2023/04/11 06:39:24;;;;;;;9.40;9.00;;;;;;;9.16;100.00;-7239.72;5093772;28;20215;-63
2023/04/11 06:41:51;;;;;;;9.77;9.27;;;;;;;9.22;100.00;-6603.81;5095190;28;20287;-62
2023/04/11 06:44:18;;;;;;;9.70;9.00;;;;;;;9.43;100.00;-6604.94;5089557;28;20204;-64
2023/04/11 06:46:45;;;;;;;10.17;9.43;;;;;;;9.33;100.00;-6286.16;5094329;28;20192;-63
2023/04/11 06:49:12;;;;;;;8.97;8.47;;;;;;;9.36;100.00;-6922.81;5095128;28;20536;-62
2023/04/11 06:51:40;;;;;;;9.53;9.03;;;;;;;9.37;100.00;-6922.88;5094920;28;20180;-62
2023/04/11 06:54:07;;;;;;;8.23;7.83;;;;;;;9.29;100.00;-6604.19;5094803;28;20200;-63
2023/04/11 06:56:35;;;;;;;8.57;8.07;;;;;;;8.98;100.00;-7238.50;5094950;28;20581;-62
2023/04/11 06:59:02;;;;;;;9.00;8.40;;;;;;;9.27;100.00;-6922.28;5094639;28;20188;-61
2023/04/11 07:01:39;;;;;;;8.70;8.20;;;;;;;9.27;100.00;-6922.28;5094146;28;20194;-65
2023/04/11 07:04:07;;;;;;;8.00;7.57;;;;;;;9.32;100.00;-6922.59;5092392;28;20184;-61
2023/04/11 07:06:35;;;;;;;9.00;8.40;;;;;;;9.30;100.00;-6922.47;5094880;28;20200;-62
2023/04/11 07:09:03;;;;;;;8.73;8.33;;;;;;;9.17;100.00;-6921.69;5095039;28;20245;-61
2023/04/11 07:11:33;;;;;;;9.73;9.03;;;;;;;9.34;100.00;-7240.91;5094986;28;20235;-62
2023/04/11 07:14:02;;;;;;;8.87;8.47;;;;;;;9.34;100.00;-7240.91;5094848;28;20226;-61
2023/04/11 07:16:29;;;;;;;8.30;7.70;;;;;;;9.34;100.00;-6604.47;5094958;28;20184;-63
2023/04/11 07:18:57;;;;;;;7.97;7.47;;;;;;;9.29;100.00;-6922.41;5094993;28;20203;-62
2023/04/11 07:21:26;;;;;;;6.80;6.50;;;;;;;9.24;100.00;-5967.44;5094208;28;20228;-62
2023/04/11 07:23:53;;;;;;;8.70;8.10;;;;;;;9.40;100.00;-5968.16;5092955;28;20181;-62
2023/04/11 07:26:22;;;;;;;5.63;5.37;;;;;;;9.38;100.00;-5649.75;5092392;28;20188;-62
2023/04/11 07:28:50;;;;;;;5.87;5.47;;;;;;;9.35;100.00;-6286.25;5094344;28;20611;-63
2023/04/11 07:31:20;;;;;;;6.17;5.77;;;;;;;9.17;100.00;-5967.16;5094045;28;20180;-63
2023/04/11 07:33:47;;;;;;;5.63;5.40;;;;;;;9.45;100.00;-6286.78;5091316;28;20211;-62
2023/04/11 07:36:13;;;;;;;5.90;5.50;;;;;;;9.46;100.00;-6605.16;5093738;28;20180;-63
2023/04/11 07:38:41;;;;;;;5.57;5.37;;;;;;;9.43;100.00;-6286.66;5093026;28;20180;-63
2023/04/11 07:41:08;;;;;;;5.80;5.60;;;;;;;9.46;100.00;-6923.44;5093739;28;20237;-63
2023/04/11 07:43:36;;;;;;;10.10;9.40;;;;;;;9.51;100.00;-6923.72;5094146;28;20223;-65
2023/04/11 07:46:03;;;;;;;8.87;8.30;;;;;;;9.53;100.00;-6287.19;5093491;28;20189;-63
2023/04/11 07:48:31;;;;;;;5.90;5.60;;;;;;;9.32;100.00;-5649.53;5094440;28;20188;-64
2023/04/11 07:50:57;;;;;;;5.67;5.47;;;;;;;9.49;100.00;-5968.59;5094125;28;20284;-63
2023/04/11 07:53:25;;;;;;;5.70;5.30;;;;;;;9.49;100.00;-5968.59;5094111;28;20203;-64
2023/04/11 07:55:53;;;;;;;5.10;4.90;;;;;;;9.47;100.00;-5968.50;5094128;28;20184;-63
2023/04/11 07:58:22;;;;;;;5.40;5.20;;;;;;;9.44;100.00;-5968.38;5093584;28;20191;-64
2023/04/11 08:00:52;;;;;;;5.47;5.07;;;;;;;9.38;100.00;-5968.09;5093356;28;20653;-63
2023/04/11 08:03:19;;;;;;;4.70;4.50;;;;;;;9.39;100.00;-5968.13;5093279;28;20195;-65
2023/04/11 08:05:46;;;;;;;5.83;5.53;;;;;;;9.43;100.00;-6923.25;5093373;28;20188;-64
2023/04/11 08:08:13;;;;;;;6.13;5.93;;;;;;;9.51;100.00;-7878.47;5093635;28;20188;-65
2023/04/11 08:10:40;;;;;;;7.03;6.63;;;;;;;9.48;100.00;-7878.28;5093848;28;20247;-64
2023/04/11 08:13:07;;;;;;;5.60;5.40;;;;;;;9.38;100.00;-7559.34;5092843;28;20227;-64
2023/04/11 08:15:35;;;;;;;5.67;5.37;;;;;;;9.50;100.00;-6923.69;5093009;28;20547;-64
2023/04/11 08:18:04;;;;;;;4.67;4.47;;;;;;;9.23;100.00;-6922.03;5093474;28;20585;-65
2023/04/11 08:20:31;;;;;;;5.60;5.30;;;;;;;9.51;100.00;-6923.72;5093200;28;20263;-64
2023/04/11 08:22:59;;;;;;;5.93;5.73;;;;;;;9.46;100.00;-7559.94;5093445;28;20557;-66
2023/04/11 08:25:26;;;;;;;6.00;5.60;;;;;;;9.66;100.00;-8197.91;5093367;28;20199;-65
2023/04/11 08:27:53;;;;;;;5.67;5.47;;;;;;;9.70;100.00;-7879.94;5091831;28;20192;-66
2023/04/11 08:30:21;;;;;;;5.57;5.27;;;;;;;9.71;100.00;-7879.97;5093448;28;20188;-66
2023/04/11 08:32:48;;;;;;;5.40;5.20;;;;;;;9.68;100.00;-7561.44;5093244;28;20562;-65
2023/04/11 08:35:17;;;;;;;5.10;4.90;;;;;;;9.69;100.00;-7879.81;5092975;28;20258;-65
2023/04/11 08:37:44;;;;;;;5.20;4.90;;;;;;;9.75;100.00;-7880.28;5092896;28;20238;-65
2023/04/11 08:40:12;;;;;;;5.60;5.20;;;;;;;9.71;100.00;-7561.66;5093103;28;20222;-64
2023/04/11 08:42:39;;;;;;;4.47;4.17;;;;;;;9.75;100.00;-8516.91;5093063;28;20267;-65
2023/04/11 08:45:09;;;;;;;3.77;3.67;;;;;;;9.77;100.00;-7880.44;5092147;28;20198;-64
2023/04/11 08:47:36;;;;;;;3.77;3.67;;;;;;;9.77;100.00;-7562.06;5091678;28;20263;-64
2023/04/11 08:50:05;;;;;;;3.50;3.20;;;;;;;9.63;100.00;-7242.81;5092566;28;20184;-64
2023/04/11 08:52:35;;;;;;;3.17;2.90;;;;;;;9.49;100.00;-6923.63;5125176;27;20196;-64
2023/04/11 08:55:02;;;;;;;3.30;3.10;;;;;;;9.63;100.00;-7242.81;5092191;28;20238;-64
2023/04/11 08:57:31;;;;;;;3.03;2.77;;;;;;;9.67;100.00;-7561.38;5092397;28;20191;-65
2023/04/11 09:00:06;;;;;;;3.03;2.93;;;;;;;9.71;100.00;-8516.53;5092469;28;20196;-64
2023/04/11 09:02:33;;;;;;;3.17;3.07;;;;;;;9.55;100.00;-9151.50;5092307;28;20230;-67
2023/04/11 09:05:01;;;;;;;3.33;3.23;;;;;;;9.75;100.00;-8835.13;5092480;28;20192;-63
2023/04/11 09:07:53;;;;;;;3.47;3.37;;;;;;;9.83;100.00;-8835.84;5091884;28;20196;-64
2023/04/11 09:10:22;;;;;;;4.13;3.93;;;;;;;9.85;100.00;-8517.78;5092439;28;20227;-62
2023/04/11 09:12:49;;;;;;;3.60;3.40;;;;;;;9.85;100.00;-8199.41;5092277;28;20266;-62
2023/04/11 09:15:22;;;;;;;3.70;3.50;;;;;;;9.76;100.00;-7880.34;5092391;28;20644;-63
2023/04/11 09:17:50;;;;;;;4.17;3.97;;;;;;;9.69;100.00;-8198.09;5092494;28;20238;-64
2023/04/11 09:20:20;;;;;;;3.83;3.63;;;;;;;9.69;100.00;-7879.81;5092520;28;20272;-64
2023/04/11 09:22:50;;;;;;;3.70;3.60;;;;;;;9.70;100.00;-8198.19;5092023;28;20187;-64
2023/04/11 09:25:18;;;;;;;4.30;4.10;;;;;;;9.76;100.00;-8835.22;5088607;28;20222;-63
2023/04/11 09:27:46;;;;;;;4.20;4.00;;;;;;;9.79;100.00;-8517.22;5084323;28;20283;-63
2023/04/11 09:30:25;;;;;;;3.93;3.80;;;;;;;9.77;100.00;-8835.31;5092762;28;20218;-62
2023/04/11 09:32:54;;;;;;;3.67;3.30;;;;;;;9.74;100.00;-7561.84;5091932;28;20237;-63
2023/04/11 09:35:23;;;;;;;3.37;2.93;;;;;;;9.71;100.00;-7880.00;5091943;28;20300;-64
2023/04/11 09:37:53;;;;;;;3.87;3.77;;;;;;;9.79;100.00;-8517.22;5092380;28;20212;-64
2023/04/11 09:40:22;;;;;;;3.77;3.67;;;;;;;9.76;100.00;-8835.25;5092245;28;20187;-65
2023/04/11 09:42:56;;;;;;;3.97;3.87;;;;;;;9.80;100.00;-8835.63;5088731;28;20200;-66
2023/04/11 09:45:25;;;;;;;3.60;3.50;;;;;;;9.85;100.00;-9154.31;5091677;28;20198;-64
2023/04/11 09:47:58;;;;;;;3.30;3.10;;;;;;;9.89;100.00;-8518.09;5091253;28;20605;-65
2023/04/11 09:50:27;;;;;;;2.83;2.73;;;;;;;9.69;100.00;-8198.09;5089554;28;20188;-62
2023/04/11 09:52:56;;;;;;;3.17;3.07;;;;;;;9.81;100.00;-8517.41;5082322;28;20202;-64
2023/04/11 09:55:27;;;;;;;3.20;3.00;;;;;;;9.97;100.00;-8837.16;5089256;28;20216;-64
2023/04/11 09:57:55;;;;;;;3.07;2.77;;;;;;;10.04;100.00;-9156.16;5091065;28;20200;-63
2023/04/11 10:00:37;;;;;;;3.23;3.03;;;;;;;9.96;100.00;-7881.91;5088904;28;20262;-64
2023/04/11 10:03:04;;;;;;;3.60;3.37;;;;;;;9.83;100.00;-8835.84;5090946;28;20740;-64
2023/04/11 10:05:34;;;;;;;3.17;3.07;;;;;;;9.97;100.00;-9792.13;5089668;28;20599;-64
2023/04/11 10:08:07;;;;;;;2.70;2.50;;;;;;;9.97;100.00;-9792.06;5092033;28;20184;-64
2023/04/11 10:10:36;;;;;;;2.77;2.67;;;;;;;10.04;100.00;-10429.41;5091308;28;20191;-65
2023/04/11 10:13:03;;;;;;;2.93;2.73;;;;;;;9.74;100.00;-10743.91;5089915;28;20281;-64
2023/04/11 10:15:30;;;;;;;2.67;2.57;;;;;;;10.18;100.00;-10112.66;5091418;28;20204;-64
2023/04/11 10:18:12;;;;;;;3.27;3.07;;;;;;;10.22;100.00;-10749.75;5091840;28;20200;-64
2023/04/11 10:20:44;;;;;;;3.30;3.20;;;;;;;10.27;100.00;-10750.38;5090072;28;20235;-64
2023/04/11 10:23:14;;;;;;;3.57;3.37;;;;;;;10.17;100.00;-10749.16;5092043;28;20188;-64
2023/04/11 10:25:52;;;;;;;3.00;2.80;;;;;;;10.09;100.00;-12020.81;5092570;28;20185;-65
2023/04/11 10:28:34;;;;;;;3.00;2.90;;;;;;;10.29;100.00;-12023.69;5092912;28;20187;-66
2023/04/11 10:31:08;;;;;;;2.97;2.87;;;;;;;10.33;100.00;-12342.47;5092844;28;20283;-66
2023/04/11 10:33:38;;;;;;;3.43;3.00;;;;;;;10.34;100.00;-12660.81;5092244;28;20184;-65
2023/04/11 10:36:08;;;;;;;2.93;2.83;;;;;;;10.45;100.00;-13298.81;5092484;28;20218;-66
2023/04/11 10:38:47;;;;;;;2.53;2.43;;;;;;;10.17;100.00;-13294.28;5093045;28;20210;-65
2023/04/11 10:41:36;;;;;;;2.83;2.73;;;;;;;10.51;100.00;-14890.34;5093065;28;20325;-65
2023/04/11 10:44:19;;;;;;;2.97;2.87;;;;;;;10.50;100.00;-16162.16;5094130;28;20599;-66
2023/04/11 10:46:52;;;;;;;3.00;2.90;;;;;;;10.53;100.00;-16162.66;5091539;28;20279;-66
2023/04/11 10:49:36;;;;;;;2.77;2.67;;;;;;;10.59;100.00;-16163.84;5078701;28;20222;-65
2023/04/11 10:52:21;;;;;;;2.60;2.50;;;;;;;10.56;100.00;-16799.00;5092059;28;20199;-65
2023/04/11 10:54:50;;;;;;;3.03;2.80;;;;;;;10.49;100.00;-17433.28;5088521;28;20212;-64
2023/04/11 10:57:18;;;;;;;2.83;2.73;;;;;;;10.51;100.00;-17751.41;5073090;28;20231;-64
2023/04/11 11:00:00;;;;;;;2.70;2.50;;;;;;;10.38;100.00;-17748.47;5071321;28;20644;-64
2023/04/11 11:02:41;;;;;;;2.93;2.83;;;;;;;10.52;100.00;-17751.78;5086593;28;20208;-64
2023/04/11 11:05:23;;;;;;;2.97;2.87;;;;;;;10.44;100.00;-18067.47;5078563;28;20504;-63
2023/04/11 11:07:53;;;;;;;3.50;3.40;;;;;;;10.73;100.00;-18074.47;5072288;28;20181;-64
2023/04/11 11:10:38;;;;;;;3.50;3.40;;;;;;;10.77;100.00;-18075.31;5091556;28;20184;-63
2023/04/11 11:13:05;;;;;;;3.53;3.43;;;;;;;10.85;100.00;-18077.25;5090779;28;20747;-61
2023/04/11 11:15:36;;;;;;;3.40;3.30;;;;;;;10.92;100.00;-18080.81;5090475;28;20601;-64
2023/04/11 11:18:08;;;;;;;3.30;3.20;;;;;;;10.91;100.00;-18080.56;5092417;28;20287;-64
2023/04/11 11:20:36;;;;;;;3.00;2.90;;;;;;;10.98;100.00;-18080.38;5094690;28;20271;-63
2023/04/11 11:23:11;;;;;;;3.37;3.27;;;;;;;10.98;100.00;-18080.50;5094322;28;20244;-63
2023/04/11 11:25:40;;;;;;;3.50;3.40;;;;;;;10.94;100.00;-18081.28;5094477;28;20596;-63
2023/04/11 11:28:08;;;;;;;3.03;2.93;;;;;;;11.16;100.00;-18086.47;5093097;28;20195;-62